createdAt,value
2022-12-31T00:00:09.571Z,100211.91
2022-12-31T00:02:36.741Z,100209.06
2022-12-31T00:05:04.660Z,100205.47
2022-12-31T00:09:57.526Z,100216.66
2022-12-31T00:12:25.625Z,100214.22
2022-12-31T00:14:52.613Z,100221.47
2022-12-31T00:17:19.671Z,100215.03
2022-12-31T00:19:46.534Z,100225.38
2022-12-31T00:22:13.641Z,100228.59
2022-12-31T00:24:40.713Z,100218.59
2022-12-31T00:27:07.903Z,100222.50
2022-12-31T00:29:34.789Z,100248.41
2022-12-31T00:32:01.886Z,100242.81
2022-12-31T00:34:28.960Z,100238.03
2022-12-31T00:36:55.853Z,100249.25
2022-12-31T00:39:22.760Z,100250.44
2022-12-31T00:41:50.169Z,100244.84
2022-12-31T00:44:17.137Z,100244.00
2022-12-31T00:49:10.627Z,100239.97
2022-12-31T00:51:37.755Z,100225.16
2022-12-31T00:54:04.642Z,100234.03
2022-12-31T00:56:32.527Z,100228.00
2022-12-31T00:59:00.303Z,100232.00
2022-12-31T01:01:34.498Z,100234.00
2022-12-31T01:04:05.358Z,100243.16
2022-12-31T01:06:32.687Z,100240.34
2022-12-31T01:08:59.751Z,100242.78
2022-12-31T01:11:29.790Z,100249.88
2022-12-31T01:13:57.442Z,100244.34
2022-12-31T01:16:36.922Z,100232.81
2022-12-31T01:19:10.389Z,100235.97
2022-12-31T01:21:40.080Z,100233.53
2022-12-31T01:24:08.432Z,100238.31
2022-12-31T01:26:36.348Z,100235.97
2022-12-31T01:29:04.551Z,100241.97
2022-12-31T01:31:31.847Z,100231.19
2022-12-31T01:33:58.743Z,100232.00
2022-12-31T01:36:28.219Z,100237.13
2022-12-31T01:38:57.326Z,100247.88
2022-12-31T01:41:27.193Z,100240.63
2022-12-31T01:44:23.688Z,100234.72
2022-12-31T01:46:58.549Z,100229.78
2022-12-31T01:49:34.522Z,100231.41
2022-12-31T01:52:06.214Z,100234.22
2022-12-31T01:54:37.860Z,100236.19
2022-12-31T01:57:05.563Z,100229.78
2022-12-31T01:59:33.191Z,100223.75
2022-12-31T02:02:01.163Z,100225.38
2022-12-31T02:04:28.481Z,100222.94
2022-12-31T02:07:00.449Z,100230.59
2022-12-31T02:09:27.896Z,100233.41
2022-12-31T02:11:54.948Z,100228.63
2022-12-31T02:14:24.661Z,100228.56
2022-12-31T02:17:21.142Z,100251.69
2022-12-31T02:20:08.732Z,100252.06
2022-12-31T02:23:04.084Z,100260.03
2022-12-31T02:25:45.237Z,100247.22
2022-12-31T02:28:50.031Z,100247.06
2022-12-31T02:31:20.047Z,100254.03
2022-12-31T02:34:01.408Z,100243.69
2022-12-31T02:36:32.862Z,100252.00
2022-12-31T02:38:59.860Z,100242.81
2022-12-31T02:41:45.494Z,100250.81
2022-12-31T02:44:30.252Z,100248.00
2022-12-31T02:47:09.651Z,100234.75
2022-12-31T02:49:51.918Z,100239.16
2022-12-31T02:52:53.821Z,100240.03
2022-12-31T02:55:41.539Z,100244.03
2022-12-31T02:58:17.003Z,100245.97
2022-12-31T03:01:10.322Z,100259.22
2022-12-31T03:03:37.981Z,100261.53
2022-12-31T03:06:05.298Z,100263.50
2022-12-31T03:08:32.410Z,100269.13
2022-12-31T03:10:59.259Z,100272.69
2022-12-31T03:13:26.731Z,100271.47
2022-12-31T03:15:53.652Z,100273.50
2022-12-31T03:18:43.471Z,100266.25
2022-12-31T03:21:32.443Z,100264.59
2022-12-31T03:24:18.220Z,100267.81
2022-12-31T03:26:45.737Z,100267.41
2022-12-31T03:29:12.637Z,100267.03
2022-12-31T03:31:40.003Z,100265.38
2022-12-31T03:34:06.896Z,100270.59
2022-12-31T03:36:53.582Z,100264.97
2022-12-31T03:39:20.641Z,100266.19
2022-12-31T03:41:47.523Z,100269.34
2022-12-31T03:44:14.590Z,100263.69
2022-12-31T03:46:41.509Z,100250.53
2022-12-31T03:49:08.764Z,100248.50
2022-12-31T03:51:35.761Z,100233.69
2022-12-31T03:54:02.932Z,100237.59
2022-12-31T03:56:29.991Z,100234.81
2022-12-31T03:58:57.332Z,100237.09
2022-12-31T04:01:24.863Z,100235.47
2022-12-31T04:03:51.923Z,100231.06
2022-12-31T04:06:18.885Z,100244.19
2022-12-31T04:08:45.933Z,100245.81
2022-12-31T04:11:18.966Z,100245.69
2022-12-31T04:13:48.036Z,100241.97
2022-12-31T04:16:15.074Z,100234.06
2022-12-31T04:18:42.181Z,100221.69
2022-12-31T04:21:09.131Z,100228.31
2022-12-31T04:23:36.426Z,100231.03
2022-12-31T04:26:03.382Z,100228.25
2022-12-31T04:28:30.522Z,100230.94
2022-12-31T04:30:58.262Z,100234.47
2022-12-31T04:33:25.222Z,100256.34
2022-12-31T04:35:52.302Z,100249.59
2022-12-31T04:38:19.280Z,100242.75
2022-12-31T04:41:04.731Z,100243.56
2022-12-31T04:43:31.747Z,100256.25
2022-12-31T04:45:58.689Z,100260.47
2022-12-31T04:48:25.710Z,100262.50
2022-12-31T04:50:53.361Z,100265.72
2022-12-31T04:53:20.455Z,100259.78
2022-12-31T04:55:47.411Z,100252.91
2022-12-31T04:58:14.462Z,100252.50
2022-12-31T05:00:41.471Z,100262.94
2022-12-31T05:03:08.547Z,100259.41
2022-12-31T05:05:39.469Z,100253.81
2022-12-31T05:08:06.454Z,100255.88
2022-12-31T05:10:33.483Z,100243.91
2022-12-31T05:13:00.483Z,100250.72
2022-12-31T05:15:27.403Z,100252.28
2022-12-31T05:17:54.592Z,100260.25
2022-12-31T05:20:21.770Z,100261.06
2022-12-31T05:22:48.824Z,100265.50
2022-12-31T05:25:15.936Z,100261.09
2022-12-31T05:27:43.030Z,100264.78
2022-12-31T05:30:10.575Z,100261.19
2022-12-31T05:32:37.866Z,100260.13
2022-12-31T05:35:05.341Z,100252.09
2022-12-31T05:37:32.577Z,100255.63
2022-12-31T05:40:00.393Z,100262.41
2022-12-31T05:42:28.189Z,100265.53
2022-12-31T05:44:55.561Z,100266.88
2022-12-31T05:47:22.624Z,100253.78
2022-12-31T05:49:49.671Z,100257.25
2022-12-31T05:52:16.774Z,100251.00
2022-12-31T05:54:43.793Z,100244.28
2022-12-31T05:57:11.011Z,100243.78
2022-12-31T05:59:38.532Z,100248.28
2022-12-31T06:02:05.645Z,100247.88
2022-12-31T06:04:33.761Z,100251.25
2022-12-31T06:07:00.604Z,100250.84
2022-12-31T06:09:27.712Z,100241.97
2022-12-31T06:11:54.697Z,100245.69
2022-12-31T06:14:22.010Z,100250.09
2022-12-31T06:16:48.920Z,100257.84
2022-12-31T06:19:16.914Z,100260.91
2022-12-31T06:21:43.907Z,100261.78
2022-12-31T06:24:10.912Z,100255.28
2022-12-31T06:26:37.909Z,100260.06
2022-12-31T06:29:05.271Z,100258.44
2022-12-31T06:31:32.189Z,100264.88
2022-12-31T06:33:59.762Z,100273.53
2022-12-31T06:36:27.296Z,100265.81
2022-12-31T06:38:54.622Z,100262.69
2022-12-31T06:41:21.972Z,100256.94
2022-12-31T06:43:49.464Z,100267.63
2022-12-31T06:46:17.625Z,100266.97
2022-12-31T06:48:45.774Z,100255.91
2022-12-31T06:51:18.064Z,100245.19
2022-12-31T06:53:46.627Z,100258.84
2022-12-31T06:56:20.404Z,100255.41
2022-12-31T06:58:48.284Z,100246.63
2022-12-31T07:01:30.589Z,100240.56
2022-12-31T07:04:19.053Z,100249.47
2022-12-31T07:06:52.462Z,100253.47
2022-12-31T07:09:51.550Z,100247.31
2022-12-31T07:12:49.182Z,100241.41
2022-12-31T07:15:40.754Z,100255.44
2022-12-31T07:18:47.216Z,100257.66
2022-12-31T07:21:19.491Z,100242.97
2022-12-31T07:23:47.198Z,100245.34
2022-12-31T07:26:34.511Z,100239.88
2022-12-31T07:29:12.312Z,100252.72
2022-12-31T07:32:00.752Z,100233.53
2022-12-31T07:34:39.779Z,100250.75
2022-12-31T07:37:28.635Z,100247.59
2022-12-31T07:40:01.964Z,100250.81
2022-12-31T07:42:59.963Z,100256.41
2022-12-31T07:45:42.121Z,100250.81
2022-12-31T07:48:28.772Z,100268.78
2022-12-31T07:50:57.173Z,100263.22
2022-12-31T07:53:25.328Z,100262.41
2022-12-31T07:56:02.878Z,100253.59
2022-12-31T07:58:39.213Z,100252.41
2022-12-31T08:01:10.238Z,100266.00
2022-12-31T08:04:01.108Z,100276.00
2022-12-31T08:06:40.169Z,100272.38
2022-12-31T08:09:44.743Z,100273.56
2022-12-31T08:12:12.002Z,100265.59
2022-12-31T08:14:45.378Z,100276.00
2022-12-31T08:17:13.979Z,100287.53
2022-12-31T08:19:41.631Z,100289.94
2022-12-31T08:22:42.810Z,100297.09
2022-12-31T08:25:32.822Z,100303.13
2022-12-31T08:28:12.105Z,100285.94
2022-12-31T08:30:48.163Z,100277.56
2022-12-31T08:33:33.839Z,100292.34
2022-12-31T08:36:14.930Z,100295.56
2022-12-31T08:38:53.342Z,100297.53
2022-12-31T08:41:48.316Z,100277.22
2022-12-31T08:44:30.726Z,100292.84
2022-12-31T08:47:00.130Z,100313.59
2022-12-31T08:49:28.640Z,100306.41
2022-12-31T08:51:56.006Z,100288.44
2022-12-31T08:54:23.513Z,100318.88
2022-12-31T08:56:59.985Z,100321.66
2022-12-31T08:59:53.117Z,100321.25
2022-12-31T09:02:43.200Z,100327.28
2022-12-31T09:05:38.497Z,100328.47
2022-12-31T09:08:20.615Z,100337.31
2022-12-31T09:11:08.334Z,100328.06
2022-12-31T09:13:58.422Z,100339.72
2022-12-31T09:16:53.565Z,100368.97
2022-12-31T09:19:20.623Z,100367.75
2022-12-31T09:21:48.182Z,100366.56
2022-12-31T09:24:15.978Z,100369.78
2022-12-31T09:27:04.324Z,100376.19
2022-12-31T09:29:43.905Z,100382.22
2022-12-31T09:32:26.778Z,100376.63
2022-12-31T09:35:08.233Z,100382.22
2022-12-31T09:37:46.392Z,100367.44
2022-12-31T09:40:28.753Z,100384.25
2022-12-31T09:43:14.572Z,100385.03
2022-12-31T09:46:29.702Z,100384.16
2022-12-31T09:49:03.062Z,100392.84
2022-12-31T09:51:29.970Z,100385.28
2022-12-31T09:54:03.271Z,100390.06
2022-12-31T09:56:34.293Z,100397.72
2022-12-31T09:59:16.711Z,100385.34
2022-12-31T10:02:18.201Z,100393.25
2022-12-31T10:04:56.712Z,100413.28
2022-12-31T10:07:26.613Z,100416.88
2022-12-31T10:10:19.271Z,100426.88
2022-12-31T10:13:06.311Z,100434.88
2022-12-31T10:16:01.022Z,100422.06
2022-12-31T10:18:47.634Z,100420.56
2022-12-31T10:21:48.713Z,100429.00
2022-12-31T10:24:33.962Z,100416.59
2022-12-31T10:27:44.212Z,100423.44
2022-12-31T10:30:17.717Z,100407.06
2022-12-31T10:32:47.244Z,100421.44
2022-12-31T10:35:36.115Z,100422.69
2022-12-31T10:38:33.973Z,100434.28
2022-12-31T10:41:35.252Z,100428.69
2022-12-31T10:44:02.264Z,100425.88
2022-12-31T10:46:50.587Z,100420.69
2022-12-31T10:49:26.572Z,100442.72
2022-12-31T10:52:21.014Z,100440.72
2022-12-31T10:55:07.301Z,100429.91
2022-12-31T10:57:42.058Z,100432.69
2022-12-31T11:00:15.484Z,100440.69
2022-12-31T11:02:48.746Z,100442.31
2022-12-31T11:05:43.063Z,100440.72
2022-12-31T11:08:24.223Z,100438.28
2022-12-31T11:11:08.853Z,100441.50
2022-12-31T11:13:58.253Z,100445.47
2022-12-31T11:16:44.564Z,100443.06
2022-12-31T11:19:36.611Z,100445.06
2022-12-31T11:22:31.463Z,100446.25
2022-12-31T11:25:23.673Z,100456.22
2022-12-31T11:28:14.449Z,100465.72
2022-12-31T11:31:06.886Z,100458.84
2022-12-31T11:34:02.091Z,100450.81
2022-12-31T11:36:55.018Z,100451.69
2022-12-31T11:40:10.242Z,100444.88
2022-12-31T11:42:52.838Z,100438.03
2022-12-31T11:45:45.642Z,100448.75
2022-12-31T11:48:32.544Z,100437.50
2022-12-31T11:51:06.690Z,100428.66
2022-12-31T11:54:13.319Z,100445.84
2022-12-31T11:57:08.602Z,100432.66
2022-12-31T11:59:36.460Z,100442.31
2022-12-31T12:02:21.941Z,100441.16
2022-12-31T12:04:50.522Z,100440.31
2022-12-31T12:07:18.222Z,100437.03
2022-12-31T12:09:46.262Z,100447.78
2022-12-31T12:12:14.131Z,100430.22
2022-12-31T12:14:43.552Z,100433.44
2022-12-31T12:17:32.724Z,100423.44
2022-12-31T12:20:16.306Z,100412.69
2022-12-31T12:22:51.293Z,100425.09
2022-12-31T12:25:24.008Z,100436.66
2022-12-31T12:27:51.756Z,100439.91
2022-12-31T12:30:27.626Z,100427.53
2022-12-31T12:33:02.472Z,100419.56
2022-12-31T12:35:32.254Z,100427.56
2022-12-31T12:38:01.926Z,100437.53
2022-12-31T12:40:33.803Z,100441.50
2022-12-31T12:43:02.810Z,100417.59
2022-12-31T12:45:38.763Z,100421.97
2022-12-31T12:48:13.658Z,100418.44
2022-12-31T12:50:44.931Z,100418.47
2022-12-31T12:53:27.571Z,100398.88
2022-12-31T12:56:19.046Z,100400.53
2022-12-31T12:59:11.395Z,100398.59
2022-12-31T13:02:00.299Z,100411.38
2022-12-31T13:04:35.387Z,100411.78
2022-12-31T13:07:30.381Z,100415.84
2022-12-31T13:10:19.949Z,100411.03
2022-12-31T13:13:23.962Z,100419.03
2022-12-31T13:16:20.302Z,100421.81
2022-12-31T13:19:29.752Z,100417.78
2022-12-31T13:22:08.903Z,100417.78
2022-12-31T13:24:43.356Z,100427.78
2022-12-31T13:27:25.551Z,100433.38
2022-12-31T13:29:54.941Z,100449.38
2022-12-31T13:32:25.650Z,100434.16
2022-12-31T13:34:57.312Z,100446.19
2022-12-31T13:37:42.069Z,100455.00
2022-12-31T13:40:24.644Z,100460.56
2022-12-31T13:43:35.572Z,100443.00
2022-12-31T13:46:20.000Z,100433.78
2022-12-31T13:48:54.266Z,100440.97
2022-12-31T13:51:42.306Z,100440.59
2022-12-31T13:54:39.122Z,100434.16
2022-12-31T13:57:15.311Z,100449.34
2022-12-31T13:59:46.690Z,100464.16
2022-12-31T14:02:24.924Z,100456.53
2022-12-31T14:05:20.203Z,100468.47
2022-12-31T14:07:54.520Z,100462.50
2022-12-31T14:10:30.071Z,100473.28
2022-12-31T14:13:07.569Z,100464.53
2022-12-31T14:16:22.367Z,100452.13
2022-12-31T14:19:18.153Z,100464.06
2022-12-31T14:21:51.650Z,100448.94
2022-12-31T14:24:31.700Z,100474.47
2022-12-31T14:27:04.186Z,100477.22
2022-12-31T14:29:46.131Z,100453.22
2022-12-31T14:32:45.785Z,100452.47
2022-12-31T14:35:40.162Z,100466.88
2022-12-31T14:38:25.347Z,100472.41
2022-12-31T14:41:11.307Z,100460.09
2022-12-31T14:44:02.114Z,100472.84
2022-12-31T14:46:40.384Z,100472.00
2022-12-31T14:49:26.962Z,100488.03
2022-12-31T14:51:54.292Z,100492.00
2022-12-31T14:54:30.016Z,100489.63
2022-12-31T14:56:57.097Z,100493.31
2022-12-31T14:59:27.358Z,100501.66
2022-12-31T15:01:55.527Z,100511.22
2022-12-31T15:04:44.262Z,100526.81
2022-12-31T15:07:24.000Z,100497.59
2022-12-31T15:10:00.073Z,100484.03
2022-12-31T15:12:31.122Z,100506.38
2022-12-31T15:14:58.484Z,100514.75
2022-12-31T15:17:31.201Z,100492.78
2022-12-31T15:20:14.954Z,100495.16
2022-12-31T15:22:47.108Z,100506.72
2022-12-31T15:25:36.788Z,100506.69
2022-12-31T15:28:22.722Z,100507.47
2022-12-31T15:30:50.620Z,100486.25
2022-12-31T15:33:42.338Z,100505.78
2022-12-31T15:36:15.093Z,100503.41
2022-12-31T15:38:42.942Z,100505.78
2022-12-31T15:41:26.274Z,100505.00
2022-12-31T15:43:56.696Z,100504.59
2022-12-31T15:46:26.973Z,100504.25
2022-12-31T15:49:04.237Z,100506.59
2022-12-31T15:51:44.502Z,100496.25
2022-12-31T15:54:22.473Z,100485.06
2022-12-31T15:56:50.535Z,100495.44
2022-12-31T15:59:18.685Z,100492.31
2022-12-31T16:01:47.073Z,100488.69
2022-12-31T16:04:28.645Z,100467.91
2022-12-31T16:07:00.375Z,100480.69
2022-12-31T16:09:33.901Z,100476.69
2022-12-31T16:12:01.980Z,100453.53
2022-12-31T16:14:31.974Z,100450.78
2022-12-31T16:17:00.726Z,100450.78
2022-12-31T16:19:46.328Z,100455.56
2022-12-31T16:22:23.618Z,100443.59
2022-12-31T16:27:49.454Z,100464.03
2022-12-31T16:30:22.316Z,100455.56
2022-12-31T16:32:50.738Z,100447.19
2022-12-31T16:35:32.546Z,100454.03
2022-12-31T16:38:20.452Z,100439.63
2022-12-31T16:41:02.818Z,100440.84
2022-12-31T16:43:35.938Z,100447.66
2022-12-31T16:46:27.766Z,100448.06
2022-12-31T16:48:54.975Z,100435.34
2022-12-31T16:51:25.193Z,100423.75
2022-12-31T16:53:52.684Z,100430.16
2022-12-31T16:56:33.718Z,100432.97
2022-12-31T16:59:04.938Z,100431.78
2022-12-31T17:01:34.702Z,100439.41
2022-12-31T17:04:05.753Z,100404.63
2022-12-31T17:06:33.952Z,100412.56
2022-12-31T17:09:15.835Z,100411.81
2022-12-31T17:12:10.560Z,100419.38
2022-12-31T17:14:48.754Z,100432.97
2022-12-31T17:17:23.952Z,100409.34
2022-12-31T17:19:56.484Z,100420.53
2022-12-31T17:22:31.584Z,100415.38
2022-12-31T17:25:06.593Z,100410.19
2022-12-31T17:27:35.460Z,100400.97
2022-12-31T17:30:30.383Z,100408.56
2022-12-31T17:33:13.974Z,100419.00
2022-12-31T17:35:43.076Z,100405.00
2022-12-31T17:38:22.873Z,100414.63
2022-12-31T17:40:54.526Z,100418.25
2022-12-31T17:43:23.439Z,100412.66
2022-12-31T17:45:54.780Z,100414.63
2022-12-31T17:48:23.584Z,100422.66
2022-12-31T17:50:59.670Z,100410.25
2022-12-31T17:53:27.454Z,100406.25
2022-12-31T17:56:01.947Z,100411.06
2022-12-31T17:58:29.814Z,100405.47
2022-12-31T18:00:57.878Z,100424.69
2022-12-31T18:03:25.529Z,100421.09
2022-12-31T18:05:52.577Z,100419.06
2022-12-31T18:08:19.692Z,100430.28
2022-12-31T18:10:46.985Z,100431.50
2022-12-31T18:13:18.365Z,100447.50
2022-12-31T18:15:45.736Z,100430.28
2022-12-31T18:18:24.859Z,100440.72
2022-12-31T18:20:55.232Z,100430.69
2022-12-31T18:23:31.176Z,100444.69
2022-12-31T18:25:58.367Z,100445.50
2022-12-31T18:28:26.075Z,100440.72
2022-12-31T18:30:53.355Z,100420.69
2022-12-31T18:33:23.943Z,100429.47
2022-12-31T18:36:09.552Z,100430.69
2022-12-31T18:38:37.193Z,100436.69
2022-12-31T18:41:04.410Z,100436.31
2022-12-31T18:43:31.954Z,100438.28
2022-12-31T18:45:59.346Z,100444.34
2022-12-31T18:48:26.480Z,100441.91
2022-12-31T18:50:53.468Z,100443.94
2022-12-31T18:53:23.364Z,100441.50
2022-12-31T18:55:52.188Z,100434.69
2022-12-31T18:58:19.734Z,100429.88
2022-12-31T19:00:47.361Z,100442.72
2022-12-31T19:03:17.662Z,100441.91
2022-12-31T19:05:47.243Z,100451.50
2022-12-31T19:08:14.422Z,100452.72
2022-12-31T19:10:41.483Z,100455.13
2022-12-31T19:13:12.565Z,100447.91
2022-12-31T19:15:45.691Z,100441.91
2022-12-31T19:18:13.264Z,100439.50
2022-12-31T19:20:41.411Z,100465.53
2022-12-31T19:23:20.753Z,100441.91
2022-12-31T19:25:48.737Z,100447.13
2022-12-31T19:28:19.288Z,100443.09
2022-12-31T19:30:46.775Z,100455.16
2022-12-31T19:33:14.830Z,100463.09
2022-12-31T19:35:42.579Z,100463.53
2022-12-31T19:38:27.382Z,100462.34
2022-12-31T19:40:55.240Z,100471.56
2022-12-31T19:43:23.725Z,100468.34
2022-12-31T19:45:51.769Z,100476.75
2022-12-31T19:48:30.478Z,100481.56
2022-12-31T19:50:59.706Z,100483.53
2022-12-31T19:53:27.747Z,100485.16
2022-12-31T19:55:55.135Z,100480.31
2022-12-31T19:58:25.723Z,100491.13
2022-12-31T20:01:01.075Z,100494.31
2022-12-31T20:03:29.490Z,100495.94
2022-12-31T20:06:06.622Z,100506.72
2022-12-31T20:08:35.005Z,100503.94
2022-12-31T20:11:22.324Z,100501.53
2022-12-31T20:13:52.440Z,100514.31
2022-12-31T20:16:22.586Z,100525.94
2022-12-31T20:18:50.839Z,100524.31
2022-12-31T20:21:24.339Z,100523.91
2022-12-31T20:23:52.889Z,100509.16
2022-12-31T20:26:21.633Z,100516.72
2022-12-31T20:28:49.195Z,100508.34
2022-12-31T20:31:19.389Z,100506.31
2022-12-31T20:33:46.949Z,100504.34
2022-12-31T20:36:15.315Z,100503.16
2022-12-31T20:38:42.882Z,100501.50
2022-12-31T20:41:13.054Z,100506.38
2022-12-31T20:43:40.198Z,100516.34
2022-12-31T20:46:14.477Z,100512.34
2022-12-31T20:48:44.112Z,100505.13
2022-12-31T20:51:11.931Z,100518.31
2022-12-31T20:53:39.071Z,100486.34
2022-12-31T20:56:07.260Z,100521.19
2022-12-31T20:58:34.850Z,100520.78
2022-12-31T21:01:06.239Z,100510.78
2022-12-31T21:06:23.209Z,100522.78
2022-12-31T21:08:50.430Z,100519.16
2022-12-31T21:11:38.058Z,100521.94
2022-12-31T21:14:05.173Z,100520.38
2022-12-31T21:16:32.646Z,100527.16
2022-12-31T21:18:59.790Z,100535.56
2022-12-31T21:21:27.092Z,100526.41
2022-12-31T21:23:54.656Z,100529.22
2022-12-31T21:26:21.851Z,100523.25
2022-12-31T21:28:49.021Z,100537.66
2022-12-31T21:31:16.234Z,100538.88
2022-12-31T21:33:47.679Z,100532.41
2022-12-31T21:36:16.043Z,100536.06
2022-12-31T21:38:44.021Z,100542.88
2022-12-31T21:41:34.110Z,100540.03
2022-12-31T21:44:02.981Z,100532.44
2022-12-31T21:46:31.059Z,100546.03
2022-12-31T21:48:59.495Z,100558.03
2022-12-31T21:51:26.996Z,100550.81
2022-12-31T21:53:54.019Z,100552.81
2022-12-31T21:56:22.138Z,100541.63
2022-12-31T21:59:14.664Z,100549.63
2022-12-31T22:02:00.734Z,100552.81
2022-12-31T22:05:00.952Z,100552.41
2022-12-31T22:07:16.116Z,100548.78
2022-12-31T22:09:43.212Z,100559.97
2022-12-31T22:12:10.395Z,100545.03
2022-12-31T22:14:37.315Z,100542.56
2022-12-31T22:17:04.339Z,100544.44
2022-12-31T22:19:33.703Z,100562.84
2022-12-31T22:22:11.032Z,100549.75
2022-12-31T22:24:38.484Z,100544.41
2022-12-31T22:27:28.830Z,100551.56
2022-12-31T22:29:52.514Z,100555.09
2022-12-31T22:32:19.370Z,100562.34
2022-12-31T22:34:46.322Z,100563.63
2022-12-31T22:37:35.852Z,100566.47
2022-12-31T22:40:01.488Z,100566.53
2022-12-31T22:42:28.452Z,100566.09
2022-12-31T22:44:55.872Z,100559.69
2022-12-31T22:47:22.812Z,100554.97
2022-12-31T22:49:50.151Z,100568.56
2022-12-31T22:52:16.974Z,100559.41
2022-12-31T22:54:44.382Z,100587.34
2022-12-31T22:57:17.813Z,100577.81
2022-12-31T22:59:46.919Z,100586.13
2022-12-31T23:02:13.791Z,100587.75
2022-12-31T23:04:40.977Z,100595.75
2022-12-31T23:07:10.008Z,100596.53
2022-12-31T23:09:57.257Z,100595.38
2022-12-31T23:12:26.977Z,100611.38
2022-12-31T23:15:13.183Z,100611.34
2022-12-31T23:17:58.674Z,100610.56
2022-12-31T23:20:44.766Z,100612.31
2022-12-31T23:23:15.551Z,100623.09
2022-12-31T23:25:48.131Z,100625.06
2022-12-31T23:28:20.717Z,100632.25
2022-12-31T23:30:48.111Z,100625.13
2022-12-31T23:33:25.786Z,100611.97
2022-12-31T23:36:06.935Z,100599.59
2022-12-31T23:38:34.368Z,100608.00
2022-12-31T23:41:01.343Z,100609.22
2022-12-31T23:43:28.512Z,100622.81
2022-12-31T23:45:55.652Z,100630.00
2022-12-31T23:48:22.816Z,100620.41
2022-12-31T23:50:53.620Z,100634.00
2022-12-31T23:53:22.011Z,100631.16
2022-12-31T23:55:48.932Z,100627.19
2022-12-31T23:58:16.471Z,100620.81
